Davisville, West Virginia
Current Conditions -  °F | °C
As of 10:30 PM on Saturday 24 Jan 2015 (Local Time) from KPKB Reporting Station
Haze Haze  
Wind Chill: 26°   Ceiling: 1600
Heat Index: 33°   Visibility: 5mi
Dew Point: 30°   Wind: 8mph
Humidity: 89%   Direction: 260°W
Pressure: 29.82"   Gusts: NA
Location:  39.2°N, 81.5°W
Report Text: KPKB 250330Z 26007KT 5SM BR SCT010 BKN016 OVC021 01/M01 A2982 RMK AO2 T00061011
Loading
Personal Weather Stations






























Interactive Weather Map New forecast layout! Learn more

10-Day Weather Forecast

Advertisements
Track Severe Weather on mobile